createdAt,value
2017-10-05T00:00:54.430Z,0
2017-10-05T00:02:03.263Z,0
2017-10-05T00:03:12.099Z,0
2017-10-05T00:04:20.926Z,0
2017-10-05T00:05:29.759Z,0
2017-10-05T00:06:38.689Z,0
2017-10-05T00:07:47.520Z,0
2017-10-05T00:08:56.350Z,0
2017-10-05T00:10:05.186Z,0
2017-10-05T00:11:14.350Z,0
2017-10-05T00:12:23.481Z,0
2017-10-05T00:13:32.313Z,0
2017-10-05T00:14:41.142Z,0
2017-10-05T00:15:49.976Z,0
2017-10-05T00:16:58.808Z,0
2017-10-05T00:18:07.791Z,0
2017-10-05T00:19:16.623Z,0
2017-10-05T00:20:25.799Z,0
2017-10-05T00:21:34.633Z,0
2017-10-05T00:22:43.465Z,0
2017-10-05T00:23:52.594Z,0
2017-10-05T00:25:01.425Z,0
2017-10-05T00:26:10.257Z,0
2017-10-05T00:27:19.089Z,0
2017-10-05T00:28:27.920Z,0
2017-10-05T00:29:36.852Z,0
2017-10-05T00:30:45.685Z,0
2017-10-05T00:31:54.514Z,0
2017-10-05T00:33:03.348Z,0
2017-10-05T00:34:12.180Z,0
2017-10-05T00:35:21.010Z,0
2017-10-05T00:36:29.843Z,0
2017-10-05T00:37:38.676Z,0
2017-10-05T00:38:47.508Z,0
2017-10-05T00:39:56.342Z,0
2017-10-05T00:41:05.226Z,0
2017-10-05T00:42:14.060Z,0
2017-10-05T00:43:22.892Z,0
2017-10-05T00:44:31.724Z,0
2017-10-05T00:45:40.557Z,0
2017-10-05T00:46:49.438Z,0
2017-10-05T00:47:58.269Z,0
2017-10-05T00:49:07.102Z,0
2017-10-05T00:50:15.932Z,0
2017-10-05T00:51:24.766Z,0
2017-10-05T00:52:33.600Z,0
2017-10-05T00:53:42.434Z,0
2017-10-05T00:54:51.264Z,0
2017-10-05T00:56:00.094Z,0
2017-10-05T00:57:08.928Z,0
2017-10-05T00:58:17.758Z,0
2017-10-05T00:59:26.928Z,0
2017-10-05T01:00:35.760Z,0
2017-10-05T01:01:44.923Z,0
2017-10-05T01:02:53.757Z,0
2017-10-05T01:04:02.687Z,0
2017-10-05T01:05:11.517Z,0
2017-10-05T01:06:20.348Z,0
2017-10-05T01:07:29.179Z,0
2017-10-05T01:08:38.011Z,0
2017-10-05T01:09:47.147Z,0
2017-10-05T01:10:55.978Z,0
2017-10-05T01:12:04.810Z,0
2017-10-05T01:13:13.641Z,0
2017-10-05T01:14:22.474Z,0
2017-10-05T01:15:31.609Z,0
2017-10-05T01:16:40.441Z,0
2017-10-05T01:17:49.272Z,0
2017-10-05T01:18:58.107Z,0
2017-10-05T01:20:07.268Z,0
2017-10-05T01:21:16.682Z,0
2017-10-05T01:22:25.514Z,0
2017-10-05T01:23:34.344Z,0
2017-10-05T01:24:43.177Z,0
2017-10-05T01:25:52.009Z,0
2017-10-05T01:27:00.942Z,0
2017-10-05T01:28:09.773Z,0
2017-10-05T01:29:18.606Z,0
2017-10-05T01:30:27.435Z,0
2017-10-05T01:31:36.267Z,0
2017-10-05T01:32:45.098Z,0
2017-10-05T01:33:54.265Z,0
2017-10-05T01:35:03.099Z,0
2017-10-05T01:36:11.931Z,0
2017-10-05T01:37:20.763Z,0
2017-10-05T01:38:29.695Z,0
2017-10-05T01:39:38.526Z,0
2017-10-05T01:40:47.360Z,0
2017-10-05T01:41:56.192Z,0
2017-10-05T01:43:05.023Z,0
2017-10-05T01:44:13.905Z,0
2017-10-05T01:45:22.739Z,0
2017-10-05T01:46:31.570Z,0
2017-10-05T01:47:40.404Z,0
2017-10-05T01:48:49.235Z,0
2017-10-05T01:49:58.067Z,0
2017-10-05T01:51:06.897Z,0
2017-10-05T01:52:15.728Z,0
2017-10-05T01:53:24.561Z,0
2017-10-05T01:54:33.394Z,0
2017-10-05T01:55:42.376Z,0
2017-10-05T01:56:51.209Z,0
2017-10-05T01:58:00.041Z,0
2017-10-05T01:59:08.873Z,0
2017-10-05T02:00:17.703Z,0
2017-10-05T02:01:26.535Z,0
2017-10-05T02:02:35.367Z,0
2017-10-05T02:03:44.195Z,0
2017-10-05T02:04:53.029Z,0
2017-10-05T02:06:02.192Z,0
2017-10-05T02:07:11.272Z,0
2017-10-05T02:08:20.102Z,0
2017-10-05T02:09:28.934Z,0
2017-10-05T02:10:37.763Z,0
2017-10-05T02:11:46.594Z,0
2017-10-05T02:12:55.676Z,0
2017-10-05T02:14:04.509Z,0
2017-10-05T02:15:13.342Z,0
2017-10-05T02:16:22.173Z,0
2017-10-05T02:17:31.001Z,0
2017-10-05T02:18:39.830Z,0
2017-10-05T02:19:48.660Z,0
2017-10-05T02:20:57.491Z,0
2017-10-05T02:22:06.323Z,0
2017-10-05T02:23:15.156Z,0
2017-10-05T02:24:24.087Z,0
2017-10-05T02:25:32.916Z,0
2017-10-05T02:26:41.746Z,0
2017-10-05T02:27:50.909Z,0
2017-10-05T02:28:59.737Z,0
2017-10-05T02:30:08.571Z,0
2017-10-05T02:31:17.402Z,0
2017-10-05T02:32:26.572Z,0
2017-10-05T02:33:35.404Z,0
2017-10-05T02:34:44.564Z,0
2017-10-05T02:35:53.499Z,0
2017-10-05T02:37:02.331Z,0
2017-10-05T02:38:11.164Z,0
2017-10-05T02:39:19.993Z,0
2017-10-05T02:40:29.160Z,0
2017-10-05T02:41:38.134Z,0
2017-10-05T02:42:46.963Z,0
2017-10-05T02:43:55.795Z,0
2017-10-05T02:45:04.627Z,0
2017-10-05T02:46:13.458Z,0
2017-10-05T02:47:22.391Z,0
2017-10-05T02:48:31.222Z,0
2017-10-05T02:49:40.053Z,0
2017-10-05T02:50:48.883Z,0
2017-10-05T02:51:57.714Z,0
2017-10-05T02:53:06.848Z,0
2017-10-05T02:54:15.677Z,0
2017-10-05T02:55:24.511Z,0
2017-10-05T02:56:33.338Z,0
2017-10-05T02:57:42.169Z,0
2017-10-05T02:58:51.002Z,0
2017-10-05T02:59:59.834Z,0
2017-10-05T03:01:08.667Z,0
2017-10-05T03:02:17.498Z,0
2017-10-05T03:03:26.330Z,0
2017-10-05T03:04:35.263Z,0
2017-10-05T03:05:44.093Z,0
2017-10-05T03:06:52.921Z,0
2017-10-05T03:08:02.090Z,0
2017-10-05T03:09:10.921Z,0
2017-10-05T03:10:20.053Z,0
2017-10-05T03:11:28.882Z,0
2017-10-05T03:12:37.714Z,0
2017-10-05T03:13:46.547Z,0
2017-10-05T03:14:55.376Z,0
2017-10-05T03:16:04.837Z,0
2017-10-05T03:17:13.670Z,0
2017-10-05T03:18:22.498Z,0
2017-10-05T03:19:31.666Z,0
2017-10-05T03:20:40.831Z,0
2017-10-05T03:21:50.063Z,0
2017-10-05T03:22:58.894Z,0
2017-10-05T03:24:07.725Z,0
2017-10-05T03:25:16.555Z,0
2017-10-05T03:26:25.385Z,0
2017-10-05T03:27:34.554Z,0
2017-10-05T03:28:43.386Z,0
2017-10-05T03:29:52.218Z,0
2017-10-05T03:31:01.052Z,0
2017-10-05T03:32:09.881Z,0
2017-10-05T03:33:18.860Z,0
2017-10-05T03:34:27.692Z,0
2017-10-05T03:35:36.524Z,0
2017-10-05T03:36:45.356Z,0
2017-10-05T03:37:54.187Z,0
2017-10-05T03:39:03.319Z,0
2017-10-05T03:40:12.151Z,0
2017-10-05T03:41:21.325Z,0
2017-10-05T03:42:30.157Z,0
2017-10-05T03:43:38.990Z,0
2017-10-05T03:44:48.022Z,0
2017-10-05T03:45:56.854Z,0
2017-10-05T03:47:05.688Z,0
2017-10-05T03:48:14.519Z,0
2017-10-05T03:49:23.348Z,0
2017-10-05T03:50:32.481Z,0
2017-10-05T03:51:41.313Z,0
2017-10-05T03:52:50.142Z,0
2017-10-05T03:53:58.973Z,0
2017-10-05T03:55:07.803Z,0
2017-10-05T03:56:16.784Z,0
2017-10-05T03:57:25.615Z,0
2017-10-05T03:58:34.780Z,0
2017-10-05T03:59:43.612Z,0
2017-10-05T04:00:52.443Z,0
2017-10-05T04:02:01.472Z,0
2017-10-05T04:03:10.641Z,0
2017-10-05T04:04:19.467Z,0
2017-10-05T04:05:28.298Z,0
2017-10-05T04:06:37.129Z,0
2017-10-05T04:07:46.591Z,0
2017-10-05T04:08:55.423Z,0
2017-10-05T04:10:04.255Z,0
2017-10-05T04:11:13.084Z,0
2017-10-05T04:12:21.914Z,0
2017-10-05T04:13:31.375Z,0
2017-10-05T04:14:40.208Z,0
2017-10-05T04:15:49.037Z,0
2017-10-05T04:16:57.866Z,0
2017-10-05T04:18:06.697Z,0
2017-10-05T04:19:15.577Z,0
2017-10-05T04:20:24.409Z,0
2017-10-05T04:21:33.241Z,0
2017-10-05T04:22:42.074Z,0
2017-10-05T04:23:50.906Z,0
2017-10-05T04:24:59.838Z,0
2017-10-05T04:26:08.668Z,0
2017-10-05T04:27:17.502Z,0
2017-10-05T04:28:26.334Z,0
2017-10-05T04:29:35.165Z,0
2017-10-05T04:30:44.155Z,0
2017-10-05T04:31:52.981Z,0
2017-10-05T04:33:01.812Z,0
2017-10-05T04:34:10.671Z,0
2017-10-05T04:35:19.499Z,0
2017-10-05T04:36:28.630Z,0
2017-10-05T04:37:37.461Z,0
2017-10-05T04:38:46.295Z,0
2017-10-05T04:39:55.462Z,0
2017-10-05T04:41:04.289Z,0
2017-10-05T04:42:13.371Z,0
2017-10-05T04:43:22.205Z,0
2017-10-05T04:44:31.037Z,0
2017-10-05T04:45:39.869Z,0
2017-10-05T04:46:48.701Z,0
2017-10-05T04:47:57.834Z,0
2017-10-05T04:49:06.661Z,0
2017-10-05T04:50:15.492Z,0
2017-10-05T04:51:24.324Z,0
2017-10-05T04:52:33.155Z,0
2017-10-05T04:53:42.037Z,0
2017-10-05T04:54:51.198Z,0
2017-10-05T04:56:00.030Z,0
2017-10-05T04:57:08.864Z,0
2017-10-05T04:58:17.690Z,0
2017-10-05T04:59:26.521Z,0
2017-10-05T05:00:35.684Z,0
2017-10-05T05:01:44.516Z,0
2017-10-05T05:02:53.348Z,0
2017-10-05T05:04:02.178Z,0
2017-10-05T05:05:11.310Z,0
2017-10-05T05:06:20.143Z,0
2017-10-05T05:07:28.976Z,0
2017-10-05T05:08:37.806Z,0
2017-10-05T05:09:46.638Z,0
2017-10-05T05:10:55.517Z,0
2017-10-05T05:12:04.350Z,0
2017-10-05T05:13:13.182Z,0
2017-10-05T05:14:22.013Z,0
2017-10-05T05:15:31.174Z,0
2017-10-05T05:16:40.004Z,0
2017-10-05T05:17:48.837Z,0
2017-10-05T05:18:57.669Z,0
2017-10-05T05:20:06.501Z,0
2017-10-05T05:21:15.335Z,0
2017-10-05T05:22:24.600Z,0
2017-10-05T05:23:33.429Z,0
2017-10-05T05:24:42.593Z,0
2017-10-05T05:25:51.423Z,0
2017-10-05T05:27:00.609Z,0
2017-10-05T05:28:09.492Z,0
2017-10-05T05:29:18.325Z,0
2017-10-05T05:30:27.157Z,0
2017-10-05T05:31:35.991Z,0
2017-10-05T05:32:45.154Z,0
2017-10-05T05:33:54.136Z,0
2017-10-05T05:35:02.970Z,0
2017-10-05T05:36:11.803Z,0
2017-10-05T05:37:20.964Z,0
2017-10-05T05:38:29.796Z,0
2017-10-05T05:39:38.928Z,0
2017-10-05T05:40:47.765Z,0
2017-10-05T05:41:56.587Z,0
2017-10-05T05:43:05.419Z,0
2017-10-05T05:44:14.250Z,0
2017-10-05T05:45:23.233Z,0
2017-10-05T05:46:32.063Z,0
2017-10-05T05:47:40.893Z,0
2017-10-05T05:48:49.723Z,0
2017-10-05T05:49:58.554Z,0
2017-10-05T05:51:07.488Z,0
2017-10-05T05:52:16.319Z,0
2017-10-05T05:53:25.153Z,0
2017-10-05T05:54:33.986Z,0
2017-10-05T05:55:42.815Z,0
2017-10-05T05:56:51.645Z,0
2017-10-05T05:58:00.477Z,5
2017-10-05T05:59:09.306Z,5
2017-10-05T06:00:18.137Z,5
2017-10-05T06:01:26.970Z,5
2017-10-05T06:02:35.901Z,5
2017-10-05T06:03:44.730Z,5
2017-10-05T06:04:53.897Z,5
2017-10-05T06:06:02.729Z,10
2017-10-05T06:07:11.562Z,10
2017-10-05T06:08:20.540Z,10
2017-10-05T06:09:29.369Z,5
2017-10-05T06:10:38.201Z,5
2017-10-05T06:11:47.032Z,10
2017-10-05T06:12:55.864Z,10
2017-10-05T06:14:04.846Z,10
2017-10-05T06:15:14.012Z,10
2017-10-05T06:16:22.843Z,10
2017-10-05T06:17:31.676Z,10
2017-10-05T06:18:40.509Z,10
2017-10-05T06:19:49.723Z,10
2017-10-05T06:20:58.554Z,10
2017-10-05T06:22:07.385Z,10
2017-10-05T06:23:16.221Z,10
2017-10-05T06:24:25.053Z,10
2017-10-05T06:25:34.702Z,10
2017-10-05T06:26:43.535Z,10
2017-10-05T06:27:52.694Z,15
2017-10-05T06:29:01.527Z,10
2017-10-05T06:30:10.356Z,10
2017-10-05T06:31:19.335Z,10
2017-10-05T06:32:28.164Z,10
2017-10-05T06:33:36.996Z,10
2017-10-05T06:34:45.824Z,10
2017-10-05T06:35:54.665Z,10
2017-10-05T06:37:03.646Z,15
2017-10-05T06:38:12.481Z,15
2017-10-05T06:39:21.313Z,15
2017-10-05T06:40:30.150Z,20
2017-10-05T06:41:39.314Z,20
2017-10-05T06:42:48.191Z,25
2017-10-05T06:43:57.023Z,25
2017-10-05T06:45:05.853Z,25
2017-10-05T06:46:14.686Z,25
2017-10-05T06:47:23.518Z,30
2017-10-05T06:48:32.450Z,30
2017-10-05T06:49:41.279Z,35
2017-10-05T06:50:50.110Z,40
2017-10-05T06:51:58.938Z,30
2017-10-05T06:53:07.771Z,30
2017-10-05T06:54:16.652Z,30
2017-10-05T06:55:25.482Z,25
2017-10-05T06:56:34.316Z,25
2017-10-05T06:57:43.144Z,25
2017-10-05T06:58:51.973Z,35
2017-10-05T07:00:00.953Z,30
2017-10-05T07:01:09.792Z,30
2017-10-05T07:02:19.283Z,35
2017-10-05T07:03:28.114Z,40
2017-10-05T07:04:36.945Z,40
2017-10-05T07:05:45.826Z,35
2017-10-05T07:06:54.656Z,40
2017-10-05T07:08:03.816Z,35
2017-10-05T07:09:12.648Z,55
2017-10-05T07:10:21.480Z,50
2017-10-05T07:11:30.710Z,40
2017-10-05T07:12:39.540Z,50
2017-10-05T07:13:48.372Z,60
2017-10-05T07:14:57.203Z,65
2017-10-05T07:16:06.036Z,50
2017-10-05T07:17:15.167Z,45
2017-10-05T07:18:24.333Z,35
2017-10-05T07:19:33.216Z,40
2017-10-05T07:20:42.046Z,60
2017-10-05T07:21:50.880Z,45
2017-10-05T07:23:00.013Z,50
2017-10-05T07:24:09.179Z,65
2017-10-05T07:25:18.344Z,65
2017-10-05T07:26:27.174Z,55
2017-10-05T07:27:36.008Z,60
2017-10-05T07:28:45.139Z,55
2017-10-05T07:29:53.970Z,65
2017-10-05T07:31:02.800Z,55
2017-10-05T07:32:11.632Z,55
2017-10-05T07:33:20.463Z,65
2017-10-05T07:34:29.344Z,70
2017-10-05T07:35:38.173Z,75
2017-10-05T07:36:47.003Z,65
2017-10-05T07:37:55.837Z,70
2017-10-05T07:39:04.666Z,65
2017-10-05T07:40:13.599Z,85
2017-10-05T07:41:22.431Z,85
2017-10-05T07:42:31.266Z,75
2017-10-05T07:43:40.427Z,85
2017-10-05T07:44:49.262Z,80
2017-10-05T07:45:58.391Z,100
2017-10-05T07:47:07.554Z,80
2017-10-05T07:48:16.720Z,75
2017-10-05T07:49:25.554Z,70
2017-10-05T07:50:34.384Z,65
2017-10-05T07:51:43.365Z,75
2017-10-05T07:52:52.195Z,65
2017-10-05T07:54:01.028Z,60
2017-10-05T07:55:09.860Z,55
2017-10-05T07:56:18.694Z,55
2017-10-05T07:57:27.527Z,70
2017-10-05T07:58:36.359Z,80
2017-10-05T07:59:45.190Z,105
2017-10-05T08:00:54.024Z,110
2017-10-05T08:02:03.184Z,130
2017-10-05T08:03:12.166Z,115
2017-10-05T08:04:20.997Z,100
2017-10-05T08:05:29.827Z,100
2017-10-05T08:06:39.372Z,100
2017-10-05T08:07:48.204Z,115
2017-10-05T08:08:57.186Z,105
2017-10-05T08:10:06.350Z,130
2017-10-05T08:11:15.180Z,130
2017-10-05T08:12:24.013Z,145
2017-10-05T08:13:32.847Z,145
2017-10-05T08:14:41.830Z,100
2017-10-05T08:15:50.662Z,100
2017-10-05T08:16:59.498Z,120
2017-10-05T08:18:08.669Z,140
2017-10-05T08:19:17.502Z,155
2017-10-05T08:20:26.487Z,170
2017-10-05T08:21:35.311Z,160
2017-10-05T08:22:44.143Z,195
2017-10-05T08:23:52.979Z,175
2017-10-05T08:25:01.810Z,160
2017-10-05T08:26:10.792Z,180
2017-10-05T08:27:19.623Z,165
2017-10-05T08:28:28.453Z,125
2017-10-05T08:29:37.284Z,160
2017-10-05T08:30:46.115Z,195
2017-10-05T08:31:55.096Z,260
2017-10-05T08:33:03.928Z,190
2017-10-05T08:34:12.761Z,195
2017-10-05T08:35:21.593Z,225
2017-10-05T08:36:30.424Z,220
2017-10-05T08:37:39.308Z,195
2017-10-05T08:38:48.140Z,150
2017-10-05T08:39:56.972Z,145
2017-10-05T08:41:05.802Z,165
2017-10-05T08:42:14.635Z,140
2017-10-05T08:43:23.619Z,135
2017-10-05T08:44:32.452Z,100
2017-10-05T08:45:41.284Z,105
2017-10-05T08:46:50.116Z,115
2017-10-05T08:47:58.949Z,130
2017-10-05T08:49:08.259Z,125
2017-10-05T08:50:17.092Z,130
2017-10-05T08:51:25.926Z,160
2017-10-05T08:52:34.760Z,220
2017-10-05T08:53:43.594Z,230
2017-10-05T08:54:52.575Z,250
2017-10-05T08:56:01.408Z,220
2017-10-05T08:57:10.240Z,135
2017-10-05T08:58:19.072Z,100
2017-10-05T08:59:27.903Z,75
2017-10-05T09:00:36.889Z,70
2017-10-05T09:01:45.721Z,80
2017-10-05T09:02:54.554Z,80
2017-10-05T09:04:03.386Z,85
2017-10-05T09:05:12.218Z,110
2017-10-05T09:06:21.152Z,215
2017-10-05T09:07:29.983Z,210
2017-10-05T09:08:38.818Z,145
2017-10-05T09:09:47.651Z,105
2017-10-05T09:10:56.485Z,105
2017-10-05T09:12:05.367Z,170
2017-10-05T09:13:14.199Z,165
2017-10-05T09:14:23.037Z,220
2017-10-05T09:15:31.871Z,280
2017-10-05T09:16:41.046Z,275
2017-10-05T09:17:50.258Z,205
2017-10-05T09:18:59.088Z,140
2017-10-05T09:20:07.919Z,140
2017-10-05T09:21:16.752Z,170
2017-10-05T09:22:25.585Z,195
2017-10-05T09:23:34.566Z,190
2017-10-05T09:24:43.397Z,225
2017-10-05T09:25:52.230Z,255
2017-10-05T09:27:01.393Z,230
2017-10-05T09:28:10.225Z,135
2017-10-05T09:29:19.356Z,105
2017-10-05T09:30:28.188Z,140
2017-10-05T09:31:37.019Z,180
2017-10-05T09:32:45.851Z,205
2017-10-05T09:33:54.684Z,190
2017-10-05T09:35:03.817Z,260
2017-10-05T09:36:12.652Z,370
2017-10-05T09:37:21.484Z,460
2017-10-05T09:38:30.318Z,310
2017-10-05T09:39:39.151Z,375
2017-10-05T09:40:48.131Z,405
2017-10-05T09:41:56.965Z,455
2017-10-05T09:43:05.797Z,525
2017-10-05T09:44:14.627Z,485
2017-10-05T09:45:23.462Z,320
2017-10-05T09:46:32.595Z,260
2017-10-05T09:47:41.426Z,235
2017-10-05T09:48:50.262Z,315
2017-10-05T09:49:59.422Z,360
2017-10-05T09:51:08.256Z,220
2017-10-05T09:52:17.570Z,295
2017-10-05T09:53:26.401Z,300
2017-10-05T09:54:35.236Z,320
2017-10-05T09:55:44.070Z,395
2017-10-05T09:56:52.902Z,215
2017-10-05T09:58:01.785Z,320
2017-10-05T09:59:10.620Z,350
2017-10-05T10:00:19.460Z,240
2017-10-05T10:01:28.291Z,325
2017-10-05T10:02:37.123Z,380
2017-10-05T10:03:45.957Z,480
2017-10-05T10:04:54.790Z,375
2017-10-05T10:06:03.623Z,415
2017-10-05T10:07:12.456Z,385
2017-10-05T10:08:21.292Z,535
2017-10-05T10:09:30.425Z,385
2017-10-05T10:10:39.266Z,515
2017-10-05T10:11:48.430Z,420
2017-10-05T10:12:57.270Z,315
2017-10-05T10:14:06.099Z,235
2017-10-05T10:15:14.984Z,160
2017-10-05T10:16:23.819Z,135
2017-10-05T10:17:32.649Z,95
2017-10-05T10:18:41.488Z,200
2017-10-05T10:19:50.321Z,140
2017-10-05T10:20:59.253Z,310
2017-10-05T10:22:08.088Z,235
2017-10-05T10:23:16.923Z,310
2017-10-05T10:24:25.754Z,325
2017-10-05T10:25:34.588Z,220
2017-10-05T10:26:43.422Z,280
2017-10-05T10:27:52.255Z,365
2017-10-05T10:29:01.088Z,500
2017-10-05T10:30:09.921Z,425
2017-10-05T10:31:18.755Z,335
2017-10-05T10:32:27.739Z,440
2017-10-05T10:33:36.574Z,330
2017-10-05T10:34:45.417Z,380
2017-10-05T10:35:54.256Z,720
2017-10-05T10:37:03.089Z,470
2017-10-05T10:38:12.074Z,245
2017-10-05T10:39:20.908Z,200
2017-10-05T10:40:29.741Z,340
2017-10-05T10:41:38.576Z,345
2017-10-05T10:42:47.413Z,195
2017-10-05T10:43:56.246Z,185
2017-10-05T10:45:05.414Z,175
2017-10-05T10:46:14.249Z,145
2017-10-05T10:47:23.084Z,170
2017-10-05T10:48:31.919Z,70
2017-10-05T10:49:40.902Z,85
2017-10-05T10:50:49.736Z,355
2017-10-05T10:51:58.570Z,495
2017-10-05T10:53:07.748Z,410
2017-10-05T10:54:16.912Z,345
2017-10-05T10:55:25.796Z,250
2017-10-05T10:56:34.631Z,395
2017-10-05T10:57:43.465Z,555
2017-10-05T10:58:52.295Z,535
2017-10-05T11:00:01.457Z,475
2017-10-05T11:01:10.289Z,610
2017-10-05T11:02:19.123Z,565
2017-10-05T11:03:27.957Z,525
2017-10-05T11:04:36.790Z,385
2017-10-05T11:05:45.624Z,550
2017-10-05T11:06:54.614Z,515
2017-10-05T11:08:03.775Z,335
2017-10-05T11:09:12.605Z,400
2017-10-05T11:10:21.436Z,535
2017-10-05T11:11:30.272Z,455
2017-10-05T11:12:39.404Z,550
2017-10-05T11:13:48.240Z,450
2017-10-05T11:14:57.071Z,540
2017-10-05T11:16:06.236Z,610
2017-10-05T11:17:15.070Z,330
2017-10-05T11:18:24.054Z,275
2017-10-05T11:19:32.886Z,175
2017-10-05T11:20:42.051Z,155
2017-10-05T11:21:51.223Z,140
2017-10-05T11:23:00.053Z,135
2017-10-05T11:24:08.935Z,145
2017-10-05T11:25:17.767Z,305
2017-10-05T11:26:26.600Z,315
2017-10-05T11:27:35.435Z,335
2017-10-05T11:28:44.268Z,240
2017-10-05T11:29:53.198Z,295
2017-10-05T11:31:02.031Z,345
2017-10-05T11:32:11.192Z,400
2017-10-05T11:33:20.023Z,385
2017-10-05T11:34:28.854Z,345
2017-10-05T11:35:37.838Z,290
2017-10-05T11:36:46.670Z,400
2017-10-05T11:37:55.506Z,605
2017-10-05T11:39:04.340Z,575
2017-10-05T11:40:13.172Z,370
2017-10-05T11:41:22.005Z,350
2017-10-05T11:42:30.837Z,585
2017-10-05T11:43:39.668Z,785
2017-10-05T11:44:48.499Z,470
2017-10-05T11:45:57.330Z,465
2017-10-05T11:47:06.212Z,490
2017-10-05T11:48:15.046Z,430
2017-10-05T11:49:23.880Z,420
2017-10-05T11:50:33.050Z,475
2017-10-05T11:51:41.882Z,1105
2017-10-05T11:52:50.762Z,845
2017-10-05T11:53:59.595Z,635
2017-10-05T11:55:08.755Z,585
2017-10-05T11:56:17.589Z,580
2017-10-05T11:57:26.419Z,645
2017-10-05T11:58:35.299Z,865
2017-10-05T11:59:44.131Z,615
2017-10-05T12:00:52.965Z,495
2017-10-05T12:02:01.798Z,435
2017-10-05T12:03:10.632Z,355
2017-10-05T12:04:19.513Z,410
2017-10-05T12:05:28.686Z,510
2017-10-05T12:06:37.517Z,545
2017-10-05T12:07:46.350Z,670
2017-10-05T12:08:55.183Z,685
2017-10-05T12:10:04.016Z,745
2017-10-05T12:11:12.852Z,725
2017-10-05T12:12:21.684Z,500
2017-10-05T12:13:30.525Z,645
2017-10-05T12:14:39.353Z,655
2017-10-05T12:15:48.287Z,555
2017-10-05T12:16:57.123Z,545
2017-10-05T12:18:05.955Z,700
2017-10-05T12:19:14.788Z,325
2017-10-05T12:20:23.624Z,390
2017-10-05T12:21:32.508Z,310
2017-10-05T12:22:41.342Z,420
2017-10-05T12:23:50.175Z,435
2017-10-05T12:24:59.008Z,495
2017-10-05T12:26:08.179Z,450
2017-10-05T12:27:17.160Z,340
2017-10-05T12:28:25.998Z,445
2017-10-05T12:29:35.163Z,400
2017-10-05T12:30:43.999Z,365
2017-10-05T12:31:52.835Z,395
2017-10-05T12:33:02.422Z,460
2017-10-05T12:34:11.255Z,575
2017-10-05T12:35:20.090Z,425
2017-10-05T12:36:28.926Z,430
2017-10-05T12:37:37.759Z,465
2017-10-05T12:38:46.591Z,490
2017-10-05T12:39:55.426Z,420
2017-10-05T12:41:04.259Z,330
2017-10-05T12:42:13.091Z,325
2017-10-05T12:43:21.923Z,245
2017-10-05T12:44:30.756Z,290
2017-10-05T12:45:39.592Z,265
2017-10-05T12:46:48.424Z,290
2017-10-05T12:47:57.258Z,365
2017-10-05T12:49:06.092Z,370
2017-10-05T12:50:15.226Z,345
2017-10-05T12:51:24.060Z,305
2017-10-05T12:52:32.891Z,325
2017-10-05T12:53:41.724Z,310
2017-10-05T12:54:50.556Z,330
2017-10-05T12:55:59.789Z,325
2017-10-05T12:57:08.952Z,400
2017-10-05T12:58:17.784Z,425
2017-10-05T12:59:26.616Z,385
2017-10-05T13:00:35.781Z,565
2017-10-05T13:01:44.764Z,565
2017-10-05T13:02:53.597Z,665
2017-10-05T13:04:02.428Z,570
2017-10-05T13:05:11.261Z,410
2017-10-05T13:06:20.094Z,400
2017-10-05T13:07:28.977Z,400
2017-10-05T13:08:37.809Z,290
2017-10-05T13:09:46.639Z,430
2017-10-05T13:10:55.476Z,325
2017-10-05T13:12:04.308Z,320
2017-10-05T13:13:13.191Z,325
2017-10-05T13:14:22.025Z,350
2017-10-05T13:15:30.860Z,435
2017-10-05T13:16:39.690Z,540
2017-10-05T13:17:48.524Z,490
2017-10-05T13:18:57.458Z,455
2017-10-05T13:20:06.292Z,335
2017-10-05T13:21:15.123Z,280
2017-10-05T13:22:24.285Z,225
2017-10-05T13:23:33.167Z,210
2017-10-05T13:24:42.049Z,220
2017-10-05T13:25:50.882Z,220
2017-10-05T13:26:59.714Z,235
2017-10-05T13:28:08.547Z,205
2017-10-05T13:29:17.381Z,280
2017-10-05T13:30:26.314Z,415
2017-10-05T13:31:35.145Z,310
2017-10-05T13:32:43.981Z,315
2017-10-05T13:33:53.149Z,320
2017-10-05T13:35:01.981Z,315
2017-10-05T13:36:10.815Z,285
2017-10-05T13:37:19.645Z,280
2017-10-05T13:38:28.479Z,415
2017-10-05T13:39:37.969Z,515
2017-10-05T13:40:46.799Z,565
2017-10-05T13:41:55.682Z,475
2017-10-05T13:43:04.516Z,340
2017-10-05T13:44:13.348Z,230
2017-10-05T13:45:22.179Z,180
2017-10-05T13:46:31.012Z,240
2017-10-05T13:47:39.895Z,210
2017-10-05T13:48:48.727Z,200
2017-10-05T13:49:57.561Z,180
2017-10-05T13:51:06.393Z,155
2017-10-05T13:52:15.225Z,110
2017-10-05T13:53:24.107Z,70
2017-10-05T13:54:32.940Z,55
2017-10-05T13:55:41.771Z,60
2017-10-05T13:56:50.602Z,100
2017-10-05T13:57:59.432Z,130
2017-10-05T13:59:08.315Z,160
2017-10-05T14:00:17.153Z,205
2017-10-05T14:01:25.981Z,305
2017-10-05T14:02:34.815Z,475
2017-10-05T14:03:43.650Z,455
2017-10-05T14:04:52.583Z,420
2017-10-05T14:06:01.416Z,635
2017-10-05T14:07:10.576Z,410
2017-10-05T14:08:19.407Z,525
2017-10-05T14:09:28.240Z,675
2017-10-05T14:10:37.172Z,965
2017-10-05T14:11:46.005Z,1085
2017-10-05T14:12:54.838Z,665
2017-10-05T14:14:03.672Z,800
2017-10-05T14:15:12.506Z,785
2017-10-05T14:16:21.393Z,460
2017-10-05T14:17:30.226Z,305
2017-10-05T14:18:39.060Z,335
2017-10-05T14:19:47.894Z,405
2017-10-05T14:20:56.727Z,1115
2017-10-05T14:22:05.861Z,565
2017-10-05T14:23:14.696Z,530
2017-10-05T14:24:23.530Z,375
2017-10-05T14:25:32.365Z,225
2017-10-05T14:26:41.198Z,140
2017-10-05T14:27:50.080Z,155
2017-10-05T14:28:58.933Z,150
2017-10-05T14:30:07.748Z,175
2017-10-05T14:31:17.270Z,135
2017-10-05T14:32:26.103Z,120
2017-10-05T14:33:35.033Z,120
2017-10-05T14:34:43.863Z,135
2017-10-05T14:35:52.696Z,140
2017-10-05T14:37:01.528Z,155
2017-10-05T14:38:10.361Z,165
2017-10-05T14:39:19.195Z,180
2017-10-05T14:40:28.028Z,215
2017-10-05T14:41:36.864Z,270
2017-10-05T14:42:45.741Z,260
2017-10-05T14:43:54.906Z,285
2017-10-05T14:45:03.889Z,225
2017-10-05T14:46:12.722Z,215
2017-10-05T14:47:21.551Z,190
2017-10-05T14:48:30.382Z,135
2017-10-05T14:49:39.213Z,125
2017-10-05T14:50:48.145Z,130
2017-10-05T14:51:56.978Z,145
2017-10-05T14:53:05.810Z,210
2017-10-05T14:54:14.644Z,185
2017-10-05T14:55:23.476Z,155
2017-10-05T14:56:32.306Z,185
2017-10-05T14:57:41.138Z,205
2017-10-05T14:58:50.301Z,300
2017-10-05T14:59:59.133Z,360
2017-10-05T15:01:08.295Z,315
2017-10-05T15:02:17.278Z,335
2017-10-05T15:03:26.111Z,275
2017-10-05T15:04:34.951Z,225
2017-10-05T15:05:44.110Z,220
2017-10-05T15:06:52.942Z,240
2017-10-05T15:08:02.076Z,250
2017-10-05T15:09:11.237Z,265
2017-10-05T15:10:20.066Z,260
2017-10-05T15:11:28.897Z,205
2017-10-05T15:12:37.729Z,170
2017-10-05T15:13:46.612Z,165
2017-10-05T15:14:55.443Z,185
2017-10-05T15:16:04.274Z,190
2017-10-05T15:17:13.103Z,180
2017-10-05T15:18:21.933Z,150
2017-10-05T15:19:30.966Z,190
2017-10-05T15:20:39.800Z,220
2017-10-05T15:21:48.962Z,385
2017-10-05T15:22:57.795Z,440
2017-10-05T15:24:06.628Z,250
2017-10-05T15:25:15.510Z,220
2017-10-05T15:26:24.342Z,280
2017-10-05T15:27:33.176Z,235
2017-10-05T15:28:42.058Z,245
2017-10-05T15:29:51.222Z,250
2017-10-05T15:31:00.105Z,220
2017-10-05T15:32:09.268Z,200
2017-10-05T15:33:18.101Z,200
2017-10-05T15:34:26.932Z,210
2017-10-05T15:35:36.429Z,220
2017-10-05T15:36:45.260Z,210
2017-10-05T15:37:54.091Z,220
2017-10-05T15:39:02.924Z,200
2017-10-05T15:40:11.757Z,265
2017-10-05T15:41:20.839Z,310
2017-10-05T15:42:29.819Z,290
2017-10-05T15:43:38.649Z,290
2017-10-05T15:44:47.483Z,210
2017-10-05T15:45:56.315Z,270
2017-10-05T15:47:05.150Z,355
2017-10-05T15:48:14.383Z,415
2017-10-05T15:49:23.216Z,280
2017-10-05T15:50:32.048Z,270
2017-10-05T15:51:40.880Z,275
2017-10-05T15:52:49.714Z,225
2017-10-05T15:53:58.648Z,225
2017-10-05T15:55:07.477Z,215
2017-10-05T15:56:16.309Z,175
2017-10-05T15:57:25.140Z,195
2017-10-05T15:58:33.973Z,220
2017-10-05T15:59:42.956Z,175
2017-10-05T16:00:51.791Z,165
2017-10-05T16:02:00.643Z,140
2017-10-05T16:03:09.456Z,135
2017-10-05T16:04:18.291Z,135
2017-10-05T16:05:27.273Z,95
2017-10-05T16:06:36.105Z,90
2017-10-05T16:07:44.937Z,90
2017-10-05T16:08:53.770Z,90
2017-10-05T16:10:02.599Z,90
2017-10-05T16:11:11.432Z,90
2017-10-05T16:12:20.264Z,90
2017-10-05T16:13:29.098Z,95
2017-10-05T16:14:37.931Z,90
2017-10-05T16:15:46.763Z,85
2017-10-05T16:16:55.896Z,100
2017-10-05T16:18:04.747Z,115
2017-10-05T16:19:13.563Z,115